Time;durP1;ratioP1;P1;durP2;ratioP2;P2;SDS_P1;SDS_P2;PMS_P1;PMS_P2;Temp;Humidity;BMP_temperature;BMP_pressure;BME280_temperature;BME280_humidity;BME280_pressure;Samples;Min_cycle;Max_cycle;Signal;HPM_P1;HPM_P2
2021/03/05 00:00:24;;;;;;;;;;;;;;;3.76;84.74;99044.35;1711414;81;20185;-77
2021/03/05 00:02:52;;;;;;;;;;;;;;;3.74;84.79;99044.29;1739683;82;20167;-81
2021/03/05 00:05:22;;;;;;;;;;;;;;;3.73;84.94;99039.92;1735289;82;20172;-80
2021/03/05 00:07:50;;;;;;;;;;;;;;;3.72;84.85;99036.39;1738119;81;20196;-78
2021/03/05 00:10:20;;;;;;;;;;;;;;;3.73;84.81;99042.11;1741147;82;20375;-78
2021/03/05 00:12:47;;;;;;;;;;;;;;;3.72;84.88;99043.67;1722591;81;20177;-77
2021/03/05 00:15:15;;;;;;;;;;;;;;;3.70;84.86;99046.63;1740210;82;20177;-76
2021/03/05 00:17:43;;;;;;;;;;;;;;;3.70;84.76;99052.04;1735376;81;20185;-80
2021/03/05 00:20:12;;;;;;;;;;;;;;;3.69;84.68;99049.58;1713959;84;20177;-79
2021/03/05 00:22:40;;;;;;;;;;;;;;;3.69;84.79;99054.44;1713048;82;20423;-78
2021/03/05 00:25:08;;;;;;;;;;;;;;;3.70;84.93;99060.68;1713569;84;20193;-77
2021/03/05 00:27:37;;;;;;;;;;;;;;;3.67;84.83;99067.38;1713585;82;20185;-77
2021/03/05 00:30:06;;;;;;;;;;;;;;;3.65;84.89;99061.91;1740903;82;20167;-80
2021/03/05 00:32:36;;;;;;;;;;;;;;;3.61;84.96;99058.03;1735572;82;20170;-78
2021/03/05 00:35:06;;;;;;;;;;;;;;;3.59;85.06;99065.56;1738782;82;20159;-80
2021/03/05 00:37:34;;;;;;;;;;;;;;;3.59;85.03;99064.21;1738612;81;20206;-78
2021/03/05 00:40:04;;;;;;;;;;;;;;;3.59;84.96;99061.50;1713400;84;20471;-78
2021/03/05 00:42:31;;;;;;;;;;;;;;;3.58;85.00;99057.14;1713297;84;20518;-81
2021/03/05 00:44:59;;;;;;;;;;;;;;;3.57;84.99;99050.89;1734191;82;20501;-79
2021/03/05 00:47:27;;;;;;;;;;;;;;;3.57;84.92;99063.59;1743111;81;20469;-79
2021/03/05 00:49:57;;;;;;;;;;;;;;;3.58;84.91;99067.95;1724690;82;20173;-78
2021/03/05 00:52:24;;;;;;;;;;;;;;;3.58;84.86;99049.85;1730536;82;20544;-78
2021/03/05 00:54:54;;;;;;;;;;;;;;;3.59;84.86;99060.95;1734899;82;20525;-79
2021/03/05 00:57:23;;;;;;;;;;;;;;;3.60;84.86;99055.84;1742549;82;20167;-78
2021/03/05 00:59:52;;;;;;;;;;;;;;;3.63;84.75;99066.73;1724999;82;20567;-79
2021/03/05 01:02:19;;;;;;;;;;;;;;;3.65;84.66;99061.91;1713328;84;20154;-79
2021/03/05 01:04:48;;;;;;;;;;;;;;;3.66;84.54;99063.56;1713172;82;20486;-79
2021/03/05 01:07:15;;;;;;;;;;;;;;;3.66;84.51;99067.62;1713477;84;20185;-77
2021/03/05 01:09:44;;;;;;;;;;;;;;;3.66;84.47;99067.62;1718777;82;20182;-80
2021/03/05 01:12:12;;;;;;;;;;;;;;;3.61;84.53;99074.27;1742855;81;20400;-79
2021/03/05 01:14:39;;;;;;;;;;;;;;;3.59;84.57;99072.33;1741276;82;20587;-80
2021/03/05 01:17:07;;;;;;;;;;;;;;;3.56;84.56;99067.38;1738366;83;20179;-79
2021/03/05 01:19:35;;;;;;;;;;;;;;;3.51;84.66;99066.72;1738689;83;20159;-82
2021/03/05 01:22:03;;;;;;;;;;;;;;;3.50;84.74;99054.24;1739518;80;20191;-81
2021/03/05 01:24:30;;;;;;;;;;;;;;;3.51;84.72;99056.42;1738999;83;20187;-81
2021/03/05 01:26:58;;;;;;;;;;;;;;;3.52;84.61;99060.23;1762462;80;20163;-81
2021/03/05 01:29:25;;;;;;;;;;;;;;;3.52;84.58;99062.11;1769492;81;20171;-79
2021/03/05 01:31:53;;;;;;;;;;;;;;;3.52;84.51;99070.23;1765186;80;20172;-80
2021/03/05 01:34:21;;;;;;;;;;;;;;;3.51;84.45;99070.78;1768097;81;20208;-81
2021/03/05 01:36:48;;;;;;;;;;;;;;;3.52;84.47;99063.47;1735397;81;20393;-80
2021/03/05 01:39:16;;;;;;;;;;;;;;;3.52;84.43;99066.17;1761756;81;20513;-82
2021/03/05 01:41:43;;;;;;;;;;;;;;;3.51;84.46;99070.78;1755420;80;20743;-81
2021/03/05 01:44:11;;;;;;;;;;;;;;;3.52;84.44;99081.05;1727093;82;20157;-79
2021/03/05 01:46:38;;;;;;;;;;;;;;;3.48;84.41;99081.23;1748617;80;20191;-80
2021/03/05 01:49:07;;;;;;;;;;;;;;;3.47;84.47;99080.92;1738292;83;20493;-80
2021/03/05 01:51:36;;;;;;;;;;;;;;;3.47;84.49;99077.69;1769634;80;20769;-81
2021/03/05 01:54:05;;;;;;;;;;;;;;;3.48;84.46;99086.64;1782723;81;20147;-78
2021/03/05 01:56:41;;;;;;;;;;;;;;;3.50;84.44;99085.87;1773553;81;20165;-78
2021/03/05 01:59:10;;;;;;;;;;;;;;;3.51;84.33;99094.30;1738910;80;20175;-79
2021/03/05 02:01:38;;;;;;;;;;;;;;;3.51;84.31;99091.07;1761662;80;20159;-80
2021/03/05 02:04:11;;;;;;;;;;;;;;;3.51;84.25;99097.83;1764643;80;20181;-80
2021/03/05 02:06:42;;;;;;;;;;;;;;;3.52;84.31;99094.58;1736410;81;20171;-80
2021/03/05 02:09:09;;;;;;;;;;;;;;;3.51;84.11;99100.53;1769296;80;20574;-83
2021/03/05 02:11:37;;;;;;;;;;;;;;;3.48;84.13;99100.99;1782260;81;20179;-79
2021/03/05 02:14:07;;;;;;;;;;;;;;;3.45;84.19;99093.86;1780232;80;20485;-79
2021/03/05 02:16:58;;;;;;;;;;;;;;;3.39;84.24;99098.86;1782166;81;20160;-85
2021/03/05 02:20:01;;;;;;;;;;;;;;;3.34;84.44;99098.72;1744303;80;20158;-79
2021/03/05 02:22:45;;;;;;;;;;;;;;;3.31;84.47;99089.70;1745763;81;20506;-84
2021/03/05 02:25:32;;;;;;;;;;;;;;;3.31;84.52;99093.24;1768921;80;20168;-84
2021/03/05 02:28:32;;;;;;;;;;;;;;;3.27;84.56;99088.50;1768217;81;20532;-78
2021/03/05 02:31:09;;;;;;;;;;;;;;;3.25;84.49;99100.08;1765224;80;20515;-83
2021/03/05 02:34:02;;;;;;;;;;;;;;;3.26;84.41;99100.39;1755128;80;20480;-81
2021/03/05 02:36:37;;;;;;;;;;;;;;;3.25;84.33;99094.15;1740428;82;20165;-76
2021/03/05 02:39:16;;;;;;;;;;;;;;;3.26;84.24;99093.11;1721249;82;20192;-80
2021/03/05 02:41:46;;;;;;;;;;;;;;;3.28;84.13;99099.63;1712336;82;20525;-79
2021/03/05 02:44:16;;;;;;;;;;;;;;;3.30;84.14;99106.98;1720668;82;20180;-79
2021/03/05 02:46:44;;;;;;;;;;;;;;;3.29;84.18;99112.11;1714034;82;20163;-78
2021/03/05 02:49:15;;;;;;;;;;;;;;;3.30;84.12;99122.68;1724643;82;20569;-79
2021/03/05 02:51:44;;;;;;;;;;;;;;;3.32;84.08;99126.50;1741285;82;20477;-78
2021/03/05 02:54:12;;;;;;;;;;;;;;;3.33;84.00;99111.41;1725087;82;20166;-78
2021/03/05 02:56:40;;;;;;;;;;;;;;;3.36;83.89;99115.02;1729280;82;20199;-78
2021/03/05 02:59:08;;;;;;;;;;;;;;;3.37;83.80;99126.63;1726209;83;20194;-77
2021/03/05 03:01:35;;;;;;;;;;;;;;;3.38;83.74;99126.94;1727032;82;20167;-78
2021/03/05 03:04:03;;;;;;;;;;;;;;;3.39;83.59;99129.41;1730400;82;20257;-80
2021/03/05 03:06:31;;;;;;;;;;;;;;;3.38;83.51;99144.00;1691529;84;20215;-79
2021/03/05 03:08:58;;;;;;;;;;;;;;;3.36;83.41;99150.17;1738046;82;20153;-74
2021/03/05 03:11:27;;;;;;;;;;;;;;;3.33;83.26;99140.33;1738647;82;20534;-78
2021/03/05 03:13:55;;;;;;;;;;;;;;;3.31;82.98;99147.85;1739938;82;20285;-80
2021/03/05 03:16:22;;;;;;;;;;;;;;;3.27;82.57;99143.94;1741376;82;20476;-80
2021/03/05 03:18:51;;;;;;;;;;;;;;;3.23;81.83;99141.40;1760504;81;20214;-76
2021/03/05 03:21:19;;;;;;;;;;;;;;;3.20;81.96;99139.45;1768464;81;20242;-77
2021/03/05 03:23:47;;;;;;;;;;;;;;;3.18;81.83;99155.61;1780376;80;20214;-80
2021/03/05 03:26:15;;;;;;;;;;;;;;;3.17;81.62;99162.06;1782091;80;20163;-77
2021/03/05 03:28:42;;;;;;;;;;;;;;;3.17;81.21;99157.48;1719549;83;20197;-80
2021/03/05 03:31:14;;;;;;;;;;;;;;;3.13;80.07;99157.66;1738681;83;20230;-81
2021/03/05 03:33:40;;;;;;;;;;;;;;;3.11;79.71;99154.87;1708791;83;20159;-80
2021/03/05 03:36:08;;;;;;;;;;;;;;;3.09;78.90;99153.73;1713672;83;20475;-79
2021/03/05 03:38:35;;;;;;;;;;;;;;;3.08;77.93;99155.32;1708692;83;20185;-81
2021/03/05 03:41:03;;;;;;;;;;;;;;;3.07;77.58;99161.25;1681369;83;20183;-77
2021/03/05 03:43:31;;;;;;;;;;;;;;;3.06;77.21;99161.48;1727908;83;20178;-82
2021/03/05 03:45:58;;;;;;;;;;;;;;;3.02;76.34;99166.51;1726644;83;20481;-81
2021/03/05 03:48:27;;;;;;;;;;;;;;;2.98;76.22;99174.78;1707825;83;20255;-79
2021/03/05 03:51:03;;;;;;;;;;;;;;;2.96;75.45;99182.27;1731835;83;20155;-80
2021/03/05 03:53:30;;;;;;;;;;;;;;;2.89;74.88;99184.23;1736533;81;20249;-80
2021/03/05 03:55:58;;;;;;;;;;;;;;;2.84;75.04;99187.30;1713597;83;20205;-80
2021/03/05 03:58:26;;;;;;;;;;;;;;;2.79;74.56;99192.03;1713648;84;20471;-78
2021/03/05 04:00:59;;;;;;;;;;;;;;;2.78;74.90;99191.75;1705235;83;20179;-80
2021/03/05 04:03:30;;;;;;;;;;;;;;;2.75;74.94;99204.34;1777682;79;20171;-80
2021/03/05 04:05:58;;;;;;;;;;;;;;;2.73;75.18;99197.00;1764483;80;20141;-77
2021/03/05 04:08:27;;;;;;;;;;;;;;;2.70;75.23;99201.49;1758266;81;20528;-81
2021/03/05 04:10:55;;;;;;;;;;;;;;;2.65;75.36;99202.69;1761360;80;20168;-83
2021/03/05 04:13:25;;;;;;;;;;;;;;;2.62;75.23;99201.78;1738790;83;20159;-77
2021/03/05 04:15:53;;;;;;;;;;;;;;;2.54;74.88;99193.95;1748429;80;20153;-77
2021/03/05 04:18:21;;;;;;;;;;;;;;;2.51;75.17;99195.74;1722799;83;20164;-78
2021/03/05 04:20:49;;;;;;;;;;;;;;;2.52;75.11;99194.19;1719135;83;20159;-78
2021/03/05 04:23:17;;;;;;;;;;;;;;;2.54;75.01;99193.95;1701522;84;20635;-79
2021/03/05 04:25:45;;;;;;;;;;;;;;;2.54;74.97;99200.19;1738484;80;20179;-80
2021/03/05 04:28:13;;;;;;;;;;;;;;;2.53;74.96;99200.39;1751429;82;20158;-82
2021/03/05 04:30:41;;;;;;;;;;;;;;;2.53;75.08;99205.80;1752632;80;20226;-81
2021/03/05 04:33:08;;;;;;;;;;;;;;;2.52;74.99;99210.91;1756277;81;20193;-82
2021/03/05 04:35:36;;;;;;;;;;;;;;;2.47;75.08;99218.34;1754424;81;20177;-83
2021/03/05 04:38:04;;;;;;;;;;;;;;;2.39;75.16;99215.08;1741155;80;20546;-84
2021/03/05 04:40:32;;;;;;;;;;;;;;;2.34;75.46;99219.80;1738295;82;20183;-78
2021/03/05 04:43:00;;;;;;;;;;;;;;;2.32;75.61;99224.60;1751468;80;20213;-77
2021/03/05 04:45:28;;;;;;;;;;;;;;;2.31;75.66;99213.48;1752012;82;20476;-82
2021/03/05 04:47:55;;;;;;;;;;;;;;;2.29;75.71;99213.40;1759137;80;20160;-84
2021/03/05 04:50:24;;;;;;;;;;;;;;;2.28;75.89;99225.23;1776132;80;20599;-79
2021/03/05 04:52:52;;;;;;;;;;;;;;;2.22;75.94;99228.83;1767882;80;20163;-86
2021/03/05 04:55:19;;;;;;;;;;;;;;;2.21;76.11;99240.66;1775582;81;20537;-78
2021/03/05 04:57:47;;;;;;;;;;;;;;;2.23;76.16;99246.66;1771688;80;20261;-80
2021/03/05 05:00:15;;;;;;;;;;;;;;;2.21;75.90;99239.31;1754493;82;20181;-79
2021/03/05 05:02:44;;;;;;;;;;;;;;;2.18;75.83;99239.23;1753804;80;20236;-79
2021/03/05 05:05:13;;;;;;;;;;;;;;;2.16;75.58;99247.25;1767667;80;20206;-79
2021/03/05 05:07:40;;;;;;;;;;;;;;;2.13;75.89;99254.42;1753102;80;20266;-77
2021/03/05 05:10:09;;;;;;;;;;;;;;;2.13;75.16;99254.42;1709617;81;20175;-84
2021/03/05 05:12:37;;;;;;;;;;;;;;;2.12;75.50;99252.79;1727308;83;20200;-79
2021/03/05 05:15:06;;;;;;;;;;;;;;;2.13;75.31;99266.57;1726127;83;20151;-78
2021/03/05 05:17:33;;;;;;;;;;;;;;;2.10;74.93;99274.58;1729962;83;20167;-81
2021/03/05 05:20:03;;;;;;;;;;;;;;;2.06;74.78;99269.84;1696940;83;20203;-77
2021/03/05 05:22:34;;;;;;;;;;;;;;;2.03;74.70;99281.91;1726741;83;20171;-75
2021/03/05 05:25:00;;;;;;;;;;;;;;;2.01;74.79;99277.25;1699808;83;20269;-81
2021/03/05 05:27:28;;;;;;;;;;;;;;;1.99;74.33;99277.16;1728826;83;20159;-85
2021/03/05 05:30:02;;;;;;;;;;;;;;;1.93;74.69;99282.90;1723705;83;20221;-76
2021/03/05 05:32:34;;;;;;;;;;;;;;;1.86;74.89;99301.00;1725971;83;20187;-79
2021/03/05 05:35:03;;;;;;;;;;;;;;;1.85;75.16;99300.17;1687829;83;20267;-82
2021/03/05 05:37:30;;;;;;;;;;;;;;;1.87;75.12;99308.87;1703033;82;20223;-79
2021/03/05 05:40:13;;;;;;;;;;;;;;;1.82;74.75;99303.29;1726552;82;20555;-81
2021/03/05 05:42:45;;;;;;;;;;;;;;;1.77;74.75;99305.00;1697881;83;20209;-77
2021/03/05 05:45:13;;;;;;;;;;;;;;;1.77;74.97;99315.25;1728252;82;20173;-79
2021/03/05 05:47:41;;;;;;;;;;;;;;;1.82;74.93;99310.58;1760586;80;20257;-82
2021/03/05 05:50:09;;;;;;;;;;;;;;;1.82;74.73;99309.23;1762416;80;20267;-77
2021/03/05 05:52:37;;;;;;;;;;;;;;;1.77;74.69;99315.80;1765089;81;20184;-81
2021/03/05 05:55:06;;;;;;;;;;;;;;;1.72;74.43;99320.45;1756624;80;20156;-79
2021/03/05 05:57:34;;;;;;;;;;;;;;;1.69;74.72;99324.13;1758338;81;20185;-79
2021/03/05 06:00:06;;;;;;;;;;;;;;;1.64;74.86;99332.86;1738021;80;20175;-81
2021/03/05 06:02:34;;;;;;;;;;;;;;;1.65;74.74;99331.80;1760979;80;20168;-81
2021/03/05 06:05:03;;;;;;;;;;;;;;;1.68;74.68;99327.34;1755083;80;20540;-81
2021/03/05 06:07:31;;;;;;;;;;;;;;;1.70;74.49;99325.25;1757288;80;20501;-80
2021/03/05 06:10:02;;;;;;;;;;;;;;;1.75;74.68;99330.83;1742001;81;20239;-80
2021/03/05 06:12:30;;;;;;;;;;;;;;;1.77;74.31;99336.03;1749924;80;20181;-81
2021/03/05 06:14:58;;;;;;;;;;;;;;;1.73;74.76;99330.73;1764922;81;20254;-78
2021/03/05 06:17:43;;;;;;;;;;;;;;;1.76;74.73;99329.80;1771439;80;20163;-77
2021/03/05 06:20:11;;;;;;;;;;;;;;;1.83;74.02;99339.20;1763814;81;20264;-76
2021/03/05 06:22:39;;;;;;;;;;;;;;;1.86;74.05;99341.47;1760133;80;20154;-79
2021/03/05 06:25:08;;;;;;;;;;;;;;;1.89;73.96;99345.09;1764112;80;20475;-81
2021/03/05 06:27:37;;;;;;;;;;;;;;;1.93;73.76;99348.49;1765221;80;20159;-79
2021/03/05 06:30:07;;;;;;;;;;;;;;;1.99;74.03;99348.67;1738016;83;20149;-78
2021/03/05 06:32:39;;;;;;;;;;;;;;;2.03;73.43;99363.38;1753827;80;20586;-77
2021/03/05 06:35:09;;;;;;;;;;;;;;;2.04;73.48;99359.65;1776238;80;20559;-76
2021/03/05 06:37:46;;;;;;;;;;;;;;;2.07;73.33;99364.62;1724842;80;20261;-78
2021/03/05 06:40:16;;;;;;;;;;;;;;;2.09;73.44;99358.48;1763552;81;20155;-77
2021/03/05 06:42:51;;;;;;;;;;;;;;;2.16;73.12;99366.84;1764319;80;20171;-78
2021/03/05 06:45:24;;;;;;;;;;;;;;;2.23;72.79;99368.98;1760486;80;20159;-78
2021/03/05 06:48:08;;;;;;;;;;;;;;;2.26;72.23;99373.95;1776235;80;20217;-80
2021/03/05 06:50:42;;;;;;;;;;;;;;;2.24;71.85;99372.52;1760965;81;20562;-78
2021/03/05 06:53:26;;;;;;;;;;;;;;;2.23;71.63;99375.73;1756006;80;20221;-78
2021/03/05 06:55:52;;;;;;;;;;;;;;;2.27;71.87;99376.97;1755316;80;20150;-76
2021/03/05 06:58:22;;;;;;;;;;;;;;;2.32;71.46;99386.60;1720877;80;20152;-80
2021/03/05 07:00:57;;;;;;;;;;;;;;;2.33;71.40;99382.00;1696217;83;20364;-78
2021/03/05 07:03:26;;;;;;;;;;;;;;;2.36;71.56;99379.71;1692202;83;20151;-80
2021/03/05 07:05:53;;;;;;;;;;;;;;;2.38;71.23;99386.23;1720120;83;20566;-78
2021/03/05 07:08:41;;;;;;;;;;;;;;;2.41;71.12;99392.04;1719799;83;20573;-77
2021/03/05 07:11:09;;;;;;;;;;;;;;;2.45;70.47;99403.25;1708949;83;20166;-79
2021/03/05 07:13:50;;;;;;;;;;;;;;;2.38;69.97;99398.38;1707226;83;20174;-78
2021/03/05 07:16:18;;;;;;;;;;;;;;;2.35;69.90;99407.74;1721610;81;20182;-81
2021/03/05 07:18:46;;;;;;;;;;;;;;;2.31;69.59;99400.30;1712423;83;20428;-79
2021/03/05 07:21:18;;;;;;;;;;;;;;;2.32;70.02;99410.07;1714178;82;20484;-78
2021/03/05 07:23:47;;;;;;;;;;;;;;;2.31;69.18;99414.63;1731051;82;20174;-80
2021/03/05 07:26:15;;;;;;;;;;;;;;;2.26;69.49;99408.22;1723724;82;20217;-79
2021/03/05 07:28:45;;;;;;;;;;;;;;;2.26;69.74;99405.52;1717458;82;20169;-78
2021/03/05 07:31:17;;;;;;;;;;;;;;;2.28;69.86;99400.72;1724050;82;20250;-80
2021/03/05 07:33:49;;;;;;;;;;;;;;;2.31;69.67;99407.05;1727858;82;20183;-80
2021/03/05 07:36:19;;;;;;;;;;;;;;;2.29;69.75;99405.93;1739661;82;20171;-78
2021/03/05 07:38:51;;;;;;;;;;;;;;;2.30;69.33;99412.16;1725171;82;20213;-80
2021/03/05 07:41:20;;;;;;;;;;;;;;;2.29;69.30;99407.80;1731447;82;20695;-76
2021/03/05 07:43:49;;;;;;;;;;;;;;;2.29;69.36;99411.84;1734281;82;20226;-74
2021/03/05 07:46:19;;;;;;;;;;;;;;;2.30;68.95;99410.81;1686418;82;20190;-78
2021/03/05 07:48:47;;;;;;;;;;;;;;;2.30;67.84;99412.97;1713933;83;20186;-77
2021/03/05 07:51:18;;;;;;;;;;;;;;;2.28;67.97;99418.27;1721992;82;20191;-78
2021/03/05 07:53:55;;;;;;;;;;;;;;;2.26;67.77;99424.42;1708092;82;20178;-78
2021/03/05 07:56:44;;;;;;;;;;;;;;;2.26;67.73;99422.55;1697352;85;20159;-76
2021/03/05 07:59:32;;;;;;;;;;;;;;;2.25;68.21;99420.88;1640534;85;20170;-80
2021/03/05 08:02:00;;;;;;;;;;;;;;;2.26;67.50;99418.50;1715901;80;20193;-80
2021/03/05 08:05:25;;;;;;;;;;;;;;;2.26;67.68;99419.02;1756041;81;20160;-81
2021/03/05 08:07:30;;;;;;;;;;;;;;;2.25;67.21;99423.58;1741569;80;20578;-79
2021/03/05 08:09:58;;;;;;;;;;;;;;;2.23;67.76;99426.19;1748276;81;20172;-83
2021/03/05 08:12:31;;;;;;;;;;;;;;;2.20;67.13;99428.00;1766647;80;20171;-80
2021/03/05 08:15:12;;;;;;;;;;;;;;;2.18;67.58;99430.06;1778396;80;20143;-81
2021/03/05 08:17:43;;;;;;;;;;;;;;;2.15;68.20;99426.46;1787114;80;20191;-80
2021/03/05 08:20:22;;;;;;;;;;;;;;;2.14;68.58;99431.54;1772288;80;20200;-79
2021/03/05 08:23:03;;;;;;;;;;;;;;;2.12;68.58;99425.02;1755891;80;20850;-80
2021/03/05 08:25:39;;;;;;;;;;;;;;;2.10;69.05;99427.63;1778767;80;20179;-77
2021/03/05 08:28:10;;;;;;;;;;;;;;;2.10;69.35;99435.73;1756203;80;20695;-79
2021/03/05 08:30:42;;;;;;;;;;;;;;;2.09;69.64;99432.19;1759752;80;20159;-80
2021/03/05 08:33:27;;;;;;;;;;;;;;;2.09;69.85;99428.14;1722467;82;20727;-78
2021/03/05 08:35:57;;;;;;;;;;;;;;;2.09;70.00;99431.36;1703288;81;20149;-76
2021/03/05 08:38:34;;;;;;;;;;;;;;;2.05;68.74;99437.69;1730786;82;20191;-77
2021/03/05 08:41:04;;;;;;;;;;;;;;;1.99;68.58;99441.78;1755373;80;20247;-79
2021/03/05 08:43:33;;;;;;;;;;;;;;;1.91;68.36;99442.33;1755190;80;20157;-77
2021/03/05 08:46:04;;;;;;;;;;;;;;;1.89;69.42;99447.63;1727443;80;20186;-75
2021/03/05 08:48:38;;;;;;;;;;;;;;;1.88;69.75;99442.75;1755532;80;20235;-74
2021/03/05 08:51:21;;;;;;;;;;;;;;;1.87;70.28;99449.17;1759012;80;20147;-78
2021/03/05 08:53:54;;;;;;;;;;;;;;;1.84;70.62;99447.44;1759493;81;20229;-80
2021/03/05 08:56:28;;;;;;;;;;;;;;;1.79;71.42;99442.68;1757423;80;20169;-84
2021/03/05 08:59:01;;;;;;;;;;;;;;;1.77;71.80;99442.58;1750656;81;20205;-84
2021/03/05 09:01:34;;;;;;;;;;;;;;;1.76;72.30;99448.49;1744203;80;20179;-81
2021/03/05 09:04:19;;;;;;;;;;;;;;;1.82;71.71;99448.98;1740053;80;20209;-81
2021/03/05 09:06:58;;;;;;;;;;;;;;;1.86;71.07;99454.79;1752166;80;20238;-79
2021/03/05 09:09:28;;;;;;;;;;;;;;;1.88;69.15;99457.59;1761918;80;20159;-84
2021/03/05 09:12:13;;;;;;;;;;;;;;;1.94;69.60;99464.01;1764672;80;20167;-78
2021/03/05 09:14:43;;;;;;;;;;;;;;;1.99;68.59;99466.06;1785400;80;20250;-83
2021/03/05 09:17:12;;;;;;;;;;;;;;;1.96;68.02;99469.18;1757273;80;20159;-87
2021/03/05 09:19:46;;;;;;;;;;;;;;;1.99;68.11;99475.00;1780800;81;20554;-83
2021/03/05 09:22:23;;;;;;;;;;;;;;;2.07;67.24;99479.33;1758666;79;20181;-78
2021/03/05 09:25:05;;;;;;;;;;;;;;;2.12;66.52;99486.27;1768002;80;20167;-79
2021/03/05 09:27:39;;;;;;;;;;;;;;;2.16;66.60;99485.63;1765919;80;20197;-78
2021/03/05 09:30:14;;;;;;;;;;;;;;;2.21;65.89;99493.91;1762948;80;20183;-79
2021/03/05 09:32:50;;;;;;;;;;;;;;;2.24;65.84;99492.66;1767368;80;20228;-76
2021/03/05 09:35:23;;;;;;;;;;;;;;;2.24;66.37;99494.01;1752952;81;20491;-76
2021/03/05 09:37:53;;;;;;;;;;;;;;;2.19;65.92;99492.47;1743676;80;20222;-79
2021/03/05 09:40:21;;;;;;;;;;;;;;;2.20;66.10;99494.94;1711141;83;20163;-79
2021/03/05 09:42:52;;;;;;;;;;;;;;;2.22;65.69;99496.09;1741535;80;20214;-78
2021/03/05 09:45:44;;;;;;;;;;;;;;;2.22;66.03;99498.80;1751092;82;20296;-77
2021/03/05 09:48:30;;;;;;;;;;;;;;;2.21;65.82;99499.83;1760198;80;20226;-78
2021/03/05 09:51:07;;;;;;;;;;;;;;;2.20;65.57;99498.98;1739729;81;20221;-77
2021/03/05 09:53:36;;;;;;;;;;;;;;;2.20;64.90;99502.23;1684071;82;20189;-83
2021/03/05 09:56:06;;;;;;;;;;;;;;;2.12;65.58;99502.47;1675705;83;20200;-76
2021/03/05 09:58:35;;;;;;;;;;;;;;;2.07;65.55;99491.47;1721651;83;20276;-76
2021/03/05 10:01:05;;;;;;;;;;;;;;;2.15;66.07;99500.15;1718093;82;20185;-81
2021/03/05 10:03:34;;;;;;;;;;;;;;;2.27;65.80;99498.47;1695073;83;20268;-80
2021/03/05 10:06:04;;;;;;;;;;;;;;;2.37;64.51;99498.01;1770599;80;20204;-81
2021/03/05 10:08:32;;;;;;;;;;;;;;;2.36;63.92;99494.47;1745250;81;20497;-81
2021/03/05 10:11:05;;;;;;;;;;;;;;;2.33;64.55;99502.16;1767275;80;20183;-82
2021/03/05 10:13:46;;;;;;;;;;;;;;;2.36;64.76;99496.34;1774788;80;20159;-81
2021/03/05 10:16:23;;;;;;;;;;;;;;;2.42;64.07;99501.73;1754990;80;20460;-80
2021/03/05 10:19:03;;;;;;;;;;;;;;;2.45;64.26;99501.83;1753634;81;20153;-81
2021/03/05 10:21:34;;;;;;;;;;;;;;;2.51;64.84;99497.73;1752859;80;20173;-82
2021/03/05 10:24:06;;;;;;;;;;;;;;;2.59;64.34;99495.30;1750954;81;20158;-79
2021/03/05 10:26:35;;;;;;;;;;;;;;;2.68;64.26;99497.24;1740496;80;20156;-80
2021/03/05 10:29:06;;;;;;;;;;;;;;;2.77;64.41;99492.71;1754205;80;20361;-79
2021/03/05 10:31:50;;;;;;;;;;;;;;;2.86;64.64;99491.95;1760706;80;20178;-83
2021/03/05 10:34:26;;;;;;;;;;;;;;;2.96;64.28;99499.05;1758182;80;20485;-81
2021/03/05 10:36:59;;;;;;;;;;;;;;;3.01;63.48;99498.68;1763975;80;20183;-76
2021/03/05 10:39:34;;;;;;;;;;;;;;;3.04;63.30;99495.55;1762682;80;20178;-79
2021/03/05 10:42:04;;;;;;;;;;;;;;;3.03;62.76;99500.67;1773973;80;20222;-81
2021/03/05 10:44:33;;;;;;;;;;;;;;;2.95;62.26;99502.27;1762875;80;20238;-81
2021/03/05 10:47:02;;;;;;;;;;;;;;;2.94;61.93;99493.84;1762282;80;20291;-83
2021/03/05 10:49:30;;;;;;;;;;;;;;;2.93;61.70;99497.61;1751395;81;20219;-75
2021/03/05 10:51:58;;;;;;;;;;;;;;;2.92;61.78;99500.00;1764258;80;20207;-74
2021/03/05 10:54:26;;;;;;;;;;;;;;;2.89;61.17;99497.72;1773906;80;20433;-77
2021/03/05 10:56:54;;;;;;;;;;;;;;;2.88;61.39;99497.95;1710781;82;20481;-78
2021/03/05 10:59:22;;;;;;;;;;;;;;;2.85;61.28;99492.98;1701517;84;20200;-78
2021/03/05 11:01:54;;;;;;;;;;;;;;;2.84;61.44;99496.71;1729197;82;20238;-79
2021/03/05 11:04:24;;;;;;;;;;;;;;;2.80;61.63;99501.74;1723312;82;20597;-78
2021/03/05 11:06:55;;;;;;;;;;;;;;;2.74;61.78;99508.00;1725127;82;20215;-79
2021/03/05 11:09:26;;;;;;;;;;;;;;;2.71;61.01;99502.22;1697870;82;20479;-80
2021/03/05 11:11:55;;;;;;;;;;;;;;;2.71;60.61;99503.57;1726717;81;20453;-80
2021/03/05 11:14:24;;;;;;;;;;;;;;;2.69;59.24;99504.28;1729045;82;20205;-78
2021/03/05 11:16:53;;;;;;;;;;;;;;;2.66;59.19;99506.89;1729089;82;20505;-80
2021/03/05 11:19:25;;;;;;;;;;;;;;;2.64;59.34;99509.50;1733924;82;20204;-78
2021/03/05 11:21:53;;;;;;;;;;;;;;;2.62;59.60;99508.38;1729797;81;20182;-78
2021/03/05 11:24:21;;;;;;;;;;;;;;;2.63;59.65;99510.05;1766289;80;20163;-79
2021/03/05 11:26:49;;;;;;;;;;;;;;;2.55;59.79;99510.30;1753743;80;20492;-79
2021/03/05 11:29:16;;;;;;;;;;;;;;;2.51;59.90;99501.78;1759994;80;20178;-79
2021/03/05 11:31:46;;;;;;;;;;;;;;;2.52;60.02;99512.06;1756024;80;20564;-80
2021/03/05 11:34:24;;;;;;;;;;;;;;;2.50;60.45;99512.81;1772180;78;20143;-80
2021/03/05 11:36:51;;;;;;;;;;;;;;;2.51;60.25;99516.64;1734579;81;20167;-78
2021/03/05 11:39:19;;;;;;;;;;;;;;;2.53;60.14;99519.11;1769883;80;20159;-75
2021/03/05 11:41:48;;;;;;;;;;;;;;;2.54;60.03;99523.48;1758957;80;20507;-76
2021/03/05 11:44:17;;;;;;;;;;;;;;;2.51;59.81;99527.44;1762908;80;20599;-79
2021/03/05 11:46:46;;;;;;;;;;;;;;;2.47;60.02;99521.34;1759024;80;20210;-79
2021/03/05 11:49:14;;;;;;;;;;;;;;;2.47;60.45;99528.09;1767736;80;20501;-79
2021/03/05 11:51:43;;;;;;;;;;;;;;;2.45;60.60;99528.83;1760751;80;20163;-79
2021/03/05 11:54:11;;;;;;;;;;;;;;;2.43;60.31;99525.48;1766255;80;20234;-79
2021/03/05 11:56:39;;;;;;;;;;;;;;;2.41;60.63;99534.33;1758918;80;20198;-81
2021/03/05 11:59:07;;;;;;;;;;;;;;;2.37;60.78;99531.25;1760122;80;20221;-78
2021/03/05 12:01:34;;;;;;;;;;;;;;;2.40;60.71;99536.75;1750811;80;20165;-81
2021/03/05 12:04:02;;;;;;;;;;;;;;;2.44;60.99;99536.61;1769237;80;20517;-78
2021/03/05 12:06:30;;;;;;;;;;;;;;;2.44;61.31;99536.61;1765695;80;20232;-80
2021/03/05 12:08:58;;;;;;;;;;;;;;;2.44;60.16;99536.61;1740287;80;20542;-81
2021/03/05 12:11:26;;;;;;;;;;;;;;;2.42;60.68;99532.78;1758192;80;20239;-79
2021/03/05 12:13:55;;;;;;;;;;;;;;;2.44;60.73;99533.91;1728209;81;20156;-80
2021/03/05 12:16:23;;;;;;;;;;;;;;;2.43;61.04;99532.24;1718801;83;20190;-78
2021/03/05 12:18:51;;;;;;;;;;;;;;;2.44;61.16;99541.50;1773052;81;20200;-80
2021/03/05 12:21:20;;;;;;;;;;;;;;;2.46;60.97;99545.33;1777683;80;20277;-82
2021/03/05 12:23:48;;;;;;;;;;;;;;;2.50;60.67;99547.92;1772057;80;20245;-79
2021/03/05 12:26:16;;;;;;;;;;;;;;;2.51;60.56;99547.70;1763519;80;20185;-81
2021/03/05 12:28:46;;;;;;;;;;;;;;;2.52;60.29;99555.28;1754183;80;20547;-80
2021/03/05 12:31:18;;;;;;;;;;;;;;;2.53;59.70;99555.06;1764733;80;20226;-79
2021/03/05 12:33:49;;;;;;;;;;;;;;;2.53;59.79;99557.77;1768430;80;20322;-81
2021/03/05 12:36:26;;;;;;;;;;;;;;;2.55;59.55;99558.91;1759546;80;20237;-82
2021/03/05 12:38:57;;;;;;;;;;;;;;;2.55;59.26;99563.77;1764842;80;20222;-77
2021/03/05 12:41:24;;;;;;;;;;;;;;;2.57;59.18;99563.58;1770527;80;20187;-81
2021/03/05 12:43:52;;;;;;;;;;;;;;;2.58;59.05;99569.81;1728771;82;20166;-82
2021/03/05 12:46:20;;;;;;;;;;;;;;;2.58;58.69;99569.30;1773259;80;20151;-82
2021/03/05 12:48:49;;;;;;;;;;;;;;;2.58;58.62;99570.65;1709674;82;20186;-80
2021/03/05 12:51:17;;;;;;;;;;;;;;;2.59;58.78;99573.64;1725599;82;20155;-79
2021/03/05 12:53:45;;;;;;;;;;;;;;;2.64;58.90;99566.23;1725170;82;20233;-81
2021/03/05 12:56:13;;;;;;;;;;;;;;;2.64;58.72;99569.77;1735580;82;20183;-79
2021/03/05 12:58:40;;;;;;;;;;;;;;;2.61;58.22;99574.25;1730609;82;20225;-81
2021/03/05 13:01:08;;;;;;;;;;;;;;;2.55;58.33;99573.77;1738531;82;20167;-81
2021/03/05 13:03:37;;;;;;;;;;;;;;;2.56;58.49;99587.05;1767426;80;20243;-81
2021/03/05 13:06:05;;;;;;;;;;;;;;;2.59;58.38;99591.20;1777502;80;20173;-80
2021/03/05 13:08:35;;;;;;;;;;;;;;;2.65;58.34;99588.17;1767769;80;20147;-80
2021/03/05 13:11:03;;;;;;;;;;;;;;;2.67;58.18;99589.61;1755649;80;20221;-79
2021/03/05 13:13:31;;;;;;;;;;;;;;;2.71;58.29;99589.48;1769485;81;20512;-80
2021/03/05 13:16:01;;;;;;;;;;;;;;;2.72;58.20;99593.02;1750362;81;20193;-78